sensor_id;sensor_type;location;lat;lon;timestamp;pressure;altitude;pressure_sealevel;temperature;humidity
12785;BME280;6456;42.680;23.260;2024-01-30T00:02:02;96581.34;;;0.36;82.53
12785;BME280;6456;42.680;23.260;2024-01-30T00:04:30;96515.78;;;-0.03;81.78
12785;BME280;6456;42.680;23.260;2024-01-30T00:06:57;96607.03;;;0.51;82.09
12785;BME280;6456;42.680;23.260;2024-01-30T00:09:24;96615.13;;;0.47;81.83
12785;BME280;6456;42.680;23.260;2024-01-30T00:11:51;96594.28;;;0.48;82.05
12785;BME280;6456;42.680;23.260;2024-01-30T00:14:18;96581.25;;;0.25;81.96
12785;BME280;6456;42.680;23.260;2024-01-30T00:16:45;96560.91;;;0.06;82.25
12785;BME280;6456;42.680;23.260;2024-01-30T00:19:13;96587.75;;;0.30;82.00
12785;BME280;6456;42.680;23.260;2024-01-30T00:21:41;96605.06;;;0.42;82.05
12785;BME280;6456;42.680;23.260;2024-01-30T00:24:08;96621.94;;;0.48;82.16
12785;BME280;6456;42.680;23.260;2024-01-30T00:26:35;96574.78;;;0.18;81.74
12785;BME280;6456;42.680;23.260;2024-01-30T00:29:02;96579.56;;;0.36;81.69
12785;BME280;6456;42.680;23.260;2024-01-30T00:31:29;96562.47;;;0.21;81.71
12785;BME280;6456;42.680;23.260;2024-01-30T00:33:57;96576.34;;;0.33;81.79
12785;BME280;6456;42.680;23.260;2024-01-30T00:36:25;96574.72;;;0.32;82.15
12785;BME280;6456;42.680;23.260;2024-01-30T00:38:55;96614.28;;;0.59;82.06
12785;BME280;6456;42.680;23.260;2024-01-30T00:41:22;96591.63;;;0.50;82.14
12785;BME280;6456;42.680;23.260;2024-01-30T00:43:49;96586.44;;;0.50;82.11
12785;BME280;6456;42.680;23.260;2024-01-30T00:46:16;96606.00;;;0.67;82.18
12785;BME280;6456;42.680;23.260;2024-01-30T00:48:43;96603.09;;;0.71;81.77
12785;BME280;6456;42.680;23.260;2024-01-30T00:51:11;96546.22;;;0.32;81.31
12785;BME280;6456;42.680;23.260;2024-01-30T00:53:39;96557.72;;;0.40;81.28
12785;BME280;6456;42.680;23.260;2024-01-30T00:56:07;96571.69;;;0.50;81.05
12785;BME280;6456;42.680;23.260;2024-01-30T00:58:34;96541.75;;;0.21;81.27
12785;BME280;6456;42.680;23.260;2024-01-30T01:01:01;96579.59;;;0.49;81.31
12785;BME280;6456;42.680;23.260;2024-01-30T01:03:28;96588.50;;;0.57;81.60
12785;BME280;6456;42.680;23.260;2024-01-30T01:05:55;96601.47;;;0.57;81.57
12785;BME280;6456;42.680;23.260;2024-01-30T01:08:22;96590.06;;;0.47;81.57
12785;BME280;6456;42.680;23.260;2024-01-30T01:10:51;96578.16;;;0.45;82.16
12785;BME280;6456;42.680;23.260;2024-01-30T01:13:18;96553.47;;;0.39;82.26
12785;BME280;6456;42.680;23.260;2024-01-30T01:15:45;96538.66;;;0.29;82.28
12785;BME280;6456;42.680;23.260;2024-01-30T01:18:12;96574.59;;;0.46;82.47
12785;BME280;6456;42.680;23.260;2024-01-30T01:20:39;96503.25;;;0.17;81.99
12785;BME280;6456;42.680;23.260;2024-01-30T01:23:06;96604.84;;;0.83;81.46
12785;BME280;6456;42.680;23.260;2024-01-30T01:25:34;96595.13;;;0.74;81.21
12785;BME280;6456;42.680;23.260;2024-01-30T01:28:03;96568.38;;;0.61;80.97
12785;BME280;6456;42.680;23.260;2024-01-30T01:30:30;96607.75;;;0.79;80.62
12785;BME280;6456;42.680;23.260;2024-01-30T01:32:57;96606.19;;;0.76;80.78
12785;BME280;6456;42.680;23.260;2024-01-30T01:35:27;96609.84;;;0.74;81.00
12785;BME280;6456;42.680;23.260;2024-01-30T01:37:55;96596.28;;;0.70;81.08
12785;BME280;6456;42.680;23.260;2024-01-30T01:40:23;96604.97;;;0.69;80.64
12785;BME280;6456;42.680;23.260;2024-01-30T01:42:51;96595.31;;;0.71;81.02
12785;BME280;6456;42.680;23.260;2024-01-30T01:45:21;96580.50;;;0.48;81.02
12785;BME280;6456;42.680;23.260;2024-01-30T01:47:50;96604.78;;;0.59;81.52
12785;BME280;6456;42.680;23.260;2024-01-30T01:50:18;96587.47;;;0.47;81.13
12785;BME280;6456;42.680;23.260;2024-01-30T01:52:48;96602.91;;;0.61;81.27
12785;BME280;6456;42.680;23.260;2024-01-30T01:55:15;96554.91;;;0.31;81.31
12785;BME280;6456;42.680;23.260;2024-01-30T01:57:43;96531.41;;;0.09;81.04
12785;BME280;6456;42.680;23.260;2024-01-30T02:00:12;96596.25;;;0.32;81.62
12785;BME280;6456;42.680;23.260;2024-01-30T02:02:43;96555.72;;;-0.07;81.66
12785;BME280;6456;42.680;23.260;2024-01-30T02:05:10;96576.03;;;-0.01;82.02
12785;BME280;6456;42.680;23.260;2024-01-30T02:07:37;96618.72;;;0.19;82.45
12785;BME280;6456;42.680;23.260;2024-01-30T02:10:07;96591.75;;;-0.04;82.20
12785;BME280;6456;42.680;23.260;2024-01-30T02:12:35;96579.09;;;-0.21;82.55
12785;BME280;6456;42.680;23.260;2024-01-30T02:15:03;96544.34;;;-0.43;82.26
12785;BME280;6456;42.680;23.260;2024-01-30T02:17:31;96571.41;;;-0.22;82.17
12785;BME280;6456;42.680;23.260;2024-01-30T02:20:00;96529.63;;;-0.55;82.14
12785;BME280;6456;42.680;23.260;2024-01-30T02:22:29;96613.50;;;0.07;82.20
12785;BME280;6456;42.680;23.260;2024-01-30T02:24:56;96609.78;;;0.11;82.82
12785;BME280;6456;42.680;23.260;2024-01-30T02:27:23;96559.00;;;-0.17;83.41
12785;BME280;6456;42.680;23.260;2024-01-30T02:29:50;96551.97;;;-0.28;81.91
12785;BME280;6456;42.680;23.260;2024-01-30T02:32:17;96591.31;;;0.03;81.70
12785;BME280;6456;42.680;23.260;2024-01-30T02:34:44;96603.19;;;0.19;80.98
12785;BME280;6456;42.680;23.260;2024-01-30T02:37:11;96554.66;;;-0.17;80.59
12785;BME280;6456;42.680;23.260;2024-01-30T02:39:39;96602.53;;;0.16;80.54
12785;BME280;6456;42.680;23.260;2024-01-30T02:42:06;96564.50;;;-0.09;81.02
12785;BME280;6456;42.680;23.260;2024-01-30T02:44:34;96598.84;;;0.20;80.50
12785;BME280;6456;42.680;23.260;2024-01-30T02:47:01;96603.59;;;0.26;79.96
12785;BME280;6456;42.680;23.260;2024-01-30T02:49:28;96605.47;;;0.24;80.26
12785;BME280;6456;42.680;23.260;2024-01-30T02:51:55;96579.56;;;0.11;79.48
12785;BME280;6456;42.680;23.260;2024-01-30T02:54:22;96576.63;;;0.03;79.91
12785;BME280;6456;42.680;23.260;2024-01-30T02:56:51;96531.69;;;-0.21;80.15
12785;BME280;6456;42.680;23.260;2024-01-30T02:59:18;96610.44;;;0.27;80.12
12785;BME280;6456;42.680;23.260;2024-01-30T03:01:46;96583.50;;;0.17;80.21
12785;BME280;6456;42.680;23.260;2024-01-30T03:04:13;96616.25;;;0.43;79.50
12785;BME280;6456;42.680;23.260;2024-01-30T03:06:45;96590.78;;;0.37;79.18
12785;BME280;6456;42.680;23.260;2024-01-30T03:09:12;96607.75;;;0.41;79.05
12785;BME280;6456;42.680;23.260;2024-01-30T03:11:40;96576.06;;;0.25;78.71
12785;BME280;6456;42.680;23.260;2024-01-30T03:14:08;96522.59;;;-0.02;78.55
12785;BME280;6456;42.680;23.260;2024-01-30T03:16:36;96562.59;;;0.20;78.12
12785;BME280;6456;42.680;23.260;2024-01-30T03:19:04;96587.75;;;0.43;78.28
12785;BME280;6456;42.680;23.260;2024-01-30T03:21:33;96590.34;;;0.43;77.98
12785;BME280;6456;42.680;23.260;2024-01-30T03:24:00;96528.19;;;0.18;77.90
12785;BME280;6456;42.680;23.260;2024-01-30T03:26:27;96600.09;;;0.64;77.54
12785;BME280;6456;42.680;23.260;2024-01-30T03:28:54;96596.16;;;0.59;76.77
12785;BME280;6456;42.680;23.260;2024-01-30T03:31:23;96513.91;;;-0.01;76.97
12785;BME280;6456;42.680;23.260;2024-01-30T03:33:50;96562.69;;;0.31;75.94
12785;BME280;6456;42.680;23.260;2024-01-30T03:36:17;96520.34;;;0.07;76.68
12785;BME280;6456;42.680;23.260;2024-01-30T03:38:45;96510.38;;;0.00;76.88
12785;BME280;6456;42.680;23.260;2024-01-30T03:41:12;96581.78;;;0.42;77.03
12785;BME280;6456;42.680;23.260;2024-01-30T03:43:39;96589.94;;;0.49;77.02
12785;BME280;6456;42.680;23.260;2024-01-30T03:46:07;96587.47;;;0.47;77.05
12785;BME280;6456;42.680;23.260;2024-01-30T03:48:35;96555.44;;;0.36;77.08
12785;BME280;6456;42.680;23.260;2024-01-30T03:51:03;96594.72;;;0.55;76.02
12785;BME280;6456;42.680;23.260;2024-01-30T03:53:31;96575.63;;;0.56;76.01
12785;BME280;6456;42.680;23.260;2024-01-30T03:55:58;96560.31;;;0.53;76.02
12785;BME280;6456;42.680;23.260;2024-01-30T03:58:25;96548.63;;;0.35;75.00
12785;BME280;6456;42.680;23.260;2024-01-30T04:00:52;96567.88;;;0.56;74.70
12785;BME280;6456;42.680;23.260;2024-01-30T04:03:19;96587.03;;;0.66;74.92
12785;BME280;6456;42.680;23.260;2024-01-30T04:05:47;96582.38;;;0.71;74.64
12785;BME280;6456;42.680;23.260;2024-01-30T04:08:14;96580.41;;;0.62;74.30
12785;BME280;6456;42.680;23.260;2024-01-30T04:10:42;96513.28;;;0.34;74.58
12785;BME280;6456;42.680;23.260;2024-01-30T04:13:09;96575.03;;;0.65;73.65
12785;BME280;6456;42.680;23.260;2024-01-30T04:15:36;96572.34;;;0.54;73.70
12785;BME280;6456;42.680;23.260;2024-01-30T04:18:03;96535.66;;;0.35;72.99
12785;BME280;6456;42.680;23.260;2024-01-30T04:20:30;96568.31;;;0.50;72.88
12785;BME280;6456;42.680;23.260;2024-01-30T04:22:59;96572.13;;;0.44;73.45
12785;BME280;6456;42.680;23.260;2024-01-30T04:25:26;96578.44;;;0.53;73.58
12785;BME280;6456;42.680;23.260;2024-01-30T04:27:53;96497.88;;;-0.06;73.64
12785;BME280;6456;42.680;23.260;2024-01-30T04:30:21;96577.81;;;0.37;73.86
12785;BME280;6456;42.680;23.260;2024-01-30T04:32:48;96558.47;;;0.30;73.78
12785;BME280;6456;42.680;23.260;2024-01-30T04:35:15;96577.72;;;0.38;73.52
12785;BME280;6456;42.680;23.260;2024-01-30T04:37:42;96565.06;;;0.34;73.51
12785;BME280;6456;42.680;23.260;2024-01-30T04:40:11;96559.69;;;0.37;73.92
12785;BME280;6456;42.680;23.260;2024-01-30T04:42:38;96591.19;;;0.56;73.97
12785;BME280;6456;42.680;23.260;2024-01-30T04:45:06;96601.75;;;0.53;73.76
12785;BME280;6456;42.680;23.260;2024-01-30T04:47:33;96548.91;;;0.18;73.35
12785;BME280;6456;42.680;23.260;2024-01-30T04:50:01;96598.22;;;0.41;73.38
12785;BME280;6456;42.680;23.260;2024-01-30T04:52:30;96549.81;;;-0.09;73.85
12785;BME280;6456;42.680;23.260;2024-01-30T04:54:57;96605.06;;;0.30;74.07
12785;BME280;6456;42.680;23.260;2024-01-30T04:57:26;96623.72;;;0.35;74.14
12785;BME280;6456;42.680;23.260;2024-01-30T04:59:53;96575.78;;;0.03;74.23
12785;BME280;6456;42.680;23.260;2024-01-30T05:02:20;96586.16;;;0.03;74.74
12785;BME280;6456;42.680;23.260;2024-01-30T05:04:47;96575.69;;;-0.09;75.65
12785;BME280;6456;42.680;23.260;2024-01-30T05:07:14;96544.69;;;-0.35;76.34
12785;BME280;6456;42.680;23.260;2024-01-30T05:09:41;96614.75;;;0.14;76.41
12785;BME280;6456;42.680;23.260;2024-01-30T05:12:08;96621.66;;;0.00;76.92
12785;BME280;6456;42.680;23.260;2024-01-30T05:14:37;96603.09;;;-0.19;77.59
12785;BME280;6456;42.680;23.260;2024-01-30T05:17:04;96588.31;;;-0.43;78.73
12785;BME280;6456;42.680;23.260;2024-01-30T05:19:46;96565.91;;;-0.57;79.20
12785;BME280;6456;42.680;23.260;2024-01-30T05:22:27;96584.91;;;-0.44;79.36
12785;BME280;6456;42.680;23.260;2024-01-30T05:24:54;96626.56;;;-0.22;79.66
12785;BME280;6456;42.680;23.260;2024-01-30T05:27:21;96583.00;;;-0.54;80.32
12785;BME280;6456;42.680;23.260;2024-01-30T05:29:50;96577.28;;;-0.59;80.13
12785;BME280;6456;42.680;23.260;2024-01-30T05:32:17;96587.47;;;-0.44;80.59
12785;BME280;6456;42.680;23.260;2024-01-30T05:34:44;96621.31;;;-0.20;80.27
12785;BME280;6456;42.680;23.260;2024-01-30T05:37:11;96619.44;;;-0.18;80.42
12785;BME280;6456;42.680;23.260;2024-01-30T05:39:42;96585.25;;;-0.36;80.27
12785;BME280;6456;42.680;23.260;2024-01-30T05:42:11;96599.31;;;-0.27;79.91
12785;BME280;6456;42.680;23.260;2024-01-30T05:44:38;96562.66;;;-0.46;79.37
12785;BME280;6456;42.680;23.260;2024-01-30T05:47:07;96587.34;;;-0.28;79.40
12785;BME280;6456;42.680;23.260;2024-01-30T05:49:34;96625.50;;;-0.05;78.88
12785;BME280;6456;42.680;23.260;2024-01-30T05:52:03;96623.41;;;-0.13;79.08
12785;BME280;6456;42.680;23.260;2024-01-30T05:54:30;96627.25;;;-0.06;78.72
12785;BME280;6456;42.680;23.260;2024-01-30T05:56:57;96618.00;;;-0.10;78.53
12785;BME280;6456;42.680;23.260;2024-01-30T05:59:25;96582.78;;;-0.25;78.37
12785;BME280;6456;42.680;23.260;2024-01-30T06:01:52;96618.97;;;-0.11;78.31
12785;BME280;6456;42.680;23.260;2024-01-30T06:04:20;96619.72;;;0.04;78.41
12785;BME280;6456;42.680;23.260;2024-01-30T06:06:47;96612.25;;;-0.01;78.49
12785;BME280;6456;42.680;23.260;2024-01-30T06:09:14;96622.38;;;0.03;77.27
12785;BME280;6456;42.680;23.260;2024-01-30T06:11:42;96616.97;;;-0.07;76.49
12785;BME280;6456;42.680;23.260;2024-01-30T06:14:09;96596.66;;;-0.26;76.11
12785;BME280;6456;42.680;23.260;2024-01-30T06:16:35;96607.00;;;-0.26;75.92
12785;BME280;6456;42.680;23.260;2024-01-30T06:19:02;96620.22;;;-0.04;75.61
12785;BME280;6456;42.680;23.260;2024-01-30T06:21:31;96618.66;;;-0.06;75.80
12785;BME280;6456;42.680;23.260;2024-01-30T06:24:02;96635.22;;;-0.09;76.10
12785;BME280;6456;42.680;23.260;2024-01-30T06:26:29;96629.34;;;0.02;75.94
12785;BME280;6456;42.680;23.260;2024-01-30T06:28:56;96638.97;;;0.00;75.62
12785;BME280;6456;42.680;23.260;2024-01-30T06:31:23;96631.44;;;0.10;75.45
12785;BME280;6456;42.680;23.260;2024-01-30T06:33:50;96628.41;;;0.03;74.42
12785;BME280;6456;42.680;23.260;2024-01-30T06:36:17;96615.75;;;-0.02;74.39
12785;BME280;6456;42.680;23.260;2024-01-30T06:38:45;96632.25;;;0.10;74.39
12785;BME280;6456;42.680;23.260;2024-01-30T06:41:12;96588.00;;;-0.12;73.62
12785;BME280;6456;42.680;23.260;2024-01-30T06:43:39;96644.94;;;0.27;72.88
12785;BME280;6456;42.680;23.260;2024-01-30T06:46:06;96641.50;;;0.27;72.18
12785;BME280;6456;42.680;23.260;2024-01-30T06:48:33;96602.97;;;0.10;71.68
12785;BME280;6456;42.680;23.260;2024-01-30T06:51:00;96615.06;;;0.09;71.12
12785;BME280;6456;42.680;23.260;2024-01-30T06:53:27;96633.56;;;0.30;71.47
12785;BME280;6456;42.680;23.260;2024-01-30T06:55:56;96573.81;;;-0.07;71.23
12785;BME280;6456;42.680;23.260;2024-01-30T06:58:23;96588.88;;;0.14;70.82
12785;BME280;6456;42.680;23.260;2024-01-30T07:00:51;96641.56;;;0.52;70.79
12785;BME280;6456;42.680;23.260;2024-01-30T07:03:18;96647.97;;;0.59;70.30
12785;BME280;6456;42.680;23.260;2024-01-30T07:05:45;96597.06;;;0.33;69.47
12785;BME280;6456;42.680;23.260;2024-01-30T07:08:12;96641.44;;;0.79;68.58
12785;BME280;6456;42.680;23.260;2024-01-30T07:10:39;96641.13;;;0.83;68.79
12785;BME280;6456;42.680;23.260;2024-01-30T07:13:07;96644.75;;;1.06;67.85
12785;BME280;6456;42.680;23.260;2024-01-30T07:15:35;96645.16;;;1.12;66.71
12785;BME280;6456;42.680;23.260;2024-01-30T07:18:03;96648.16;;;1.19;66.01
12785;BME280;6456;42.680;23.260;2024-01-30T07:20:31;96649.50;;;1.24;64.29
12785;BME280;6456;42.680;23.260;2024-01-30T07:22:58;96649.19;;;1.29;63.07
12785;BME280;6456;42.680;23.260;2024-01-30T07:25:25;96644.81;;;1.29;62.99
12785;BME280;6456;42.680;23.260;2024-01-30T07:27:54;96643.31;;;1.51;63.52
12785;BME280;6456;42.680;23.260;2024-01-30T07:30:22;96647.41;;;1.66;62.85
12785;BME280;6456;42.680;23.260;2024-01-30T07:32:50;96610.88;;;1.45;63.01
12785;BME280;6456;42.680;23.260;2024-01-30T07:35:16;96656.31;;;1.74;62.53
12785;BME280;6456;42.680;23.260;2024-01-30T07:37:44;96645.88;;;1.87;61.96
12785;BME280;6456;42.680;23.260;2024-01-30T07:40:11;96629.09;;;1.80;61.51
12785;BME280;6456;42.680;23.260;2024-01-30T07:42:38;96585.97;;;1.43;60.68
12785;BME280;6456;42.680;23.260;2024-01-30T07:45:05;96602.56;;;1.64;61.05
12785;BME280;6456;42.680;23.260;2024-01-30T07:47:34;96639.31;;;1.70;60.13
12785;BME280;6456;42.680;23.260;2024-01-30T07:50:01;96606.19;;;1.50;59.79
12785;BME280;6456;42.680;23.260;2024-01-30T07:52:28;96619.41;;;1.58;60.07
12785;BME280;6456;42.680;23.260;2024-01-30T07:54:55;96635.34;;;1.77;60.33
12785;BME280;6456;42.680;23.260;2024-01-30T07:57:22;96604.88;;;1.56;60.20
12785;BME280;6456;42.680;23.260;2024-01-30T07:59:49;96582.31;;;1.45;60.64
12785;BME280;6456;42.680;23.260;2024-01-30T08:02:16;96630.41;;;1.62;60.33
12785;BME280;6456;42.680;23.260;2024-01-30T08:04:45;96621.75;;;1.50;60.24
12785;BME280;6456;42.680;23.260;2024-01-30T08:07:14;96633.59;;;1.42;60.71
12785;BME280;6456;42.680;23.260;2024-01-30T08:09:43;96628.44;;;1.29;62.28
12785;BME280;6456;42.680;23.260;2024-01-30T08:12:10;96554.03;;;0.93;62.12
12785;BME280;6456;42.680;23.260;2024-01-30T08:14:38;96589.69;;;1.02;62.34
12785;BME280;6456;42.680;23.260;2024-01-30T08:17:06;96628.31;;;1.30;62.46
12785;BME280;6456;42.680;23.260;2024-01-30T08:19:34;96601.38;;;1.20;62.65
12785;BME280;6456;42.680;23.260;2024-01-30T08:22:03;96596.50;;;1.16;62.31
12785;BME280;6456;42.680;23.260;2024-01-30T08:24:30;96628.19;;;1.45;60.80
12785;BME280;6456;42.680;23.260;2024-01-30T08:26:57;96543.06;;;0.90;61.76
12785;BME280;6456;42.680;23.260;2024-01-30T08:29:26;96567.69;;;1.08;61.78
12785;BME280;6456;42.680;23.260;2024-01-30T08:31:53;96590.44;;;1.28;61.05
12785;BME280;6456;42.680;23.260;2024-01-30T08:34:21;96624.22;;;1.52;61.94
12785;BME280;6456;42.680;23.260;2024-01-30T08:36:48;96589.91;;;1.36;61.85
12785;BME280;6456;42.680;23.260;2024-01-30T08:39:17;96603.97;;;1.57;61.04
12785;BME280;6456;42.680;23.260;2024-01-30T08:41:44;96599.31;;;1.73;59.62
12785;BME280;6456;42.680;23.260;2024-01-30T08:44:11;96627.69;;;2.11;59.02
12785;BME280;6456;42.680;23.260;2024-01-30T08:46:38;96618.34;;;2.08;58.37
12785;BME280;6456;42.680;23.260;2024-01-30T08:49:04;96649.63;;;2.30;57.87
12785;BME280;6456;42.680;23.260;2024-01-30T08:51:31;96639.69;;;2.24;58.30
12785;BME280;6456;42.680;23.260;2024-01-30T08:53:59;96630.53;;;2.08;57.91
12785;BME280;6456;42.680;23.260;2024-01-30T08:56:28;96657.59;;;2.16;58.13
12785;BME280;6456;42.680;23.260;2024-01-30T08:58:55;96645.91;;;2.22;58.22
12785;BME280;6456;42.680;23.260;2024-01-30T09:01:22;96599.38;;;1.84;58.77
12785;BME280;6456;42.680;23.260;2024-01-30T09:03:49;96645.09;;;2.21;59.03
12785;BME280;6456;42.680;23.260;2024-01-30T09:06:16;96658.41;;;2.40;59.18
12785;BME280;6456;42.680;23.260;2024-01-30T09:08:43;96679.97;;;2.65;58.66
12785;BME280;6456;42.680;23.260;2024-01-30T09:11:11;96647.81;;;2.54;58.01
12785;BME280;6456;42.680;23.260;2024-01-30T09:13:41;96654.22;;;2.27;58.66
12785;BME280;6456;42.680;23.260;2024-01-30T09:16:09;96610.19;;;2.02;60.78
12785;BME280;6456;42.680;23.260;2024-01-30T09:18:36;96643.88;;;1.90;63.11
12785;BME280;6456;42.680;23.260;2024-01-30T09:21:03;96649.97;;;2.02;63.99
12785;BME280;6456;42.680;23.260;2024-01-30T09:23:32;96655.25;;;2.24;63.59
12785;BME280;6456;42.680;23.260;2024-01-30T09:26:00;96623.31;;;2.11;63.85
12785;BME280;6456;42.680;23.260;2024-01-30T09:28:27;96606.75;;;2.01;63.74
12785;BME280;6456;42.680;23.260;2024-01-30T09:30:55;96567.50;;;1.58;64.04
12785;BME280;6456;42.680;23.260;2024-01-30T09:33:23;96609.97;;;1.81;64.83
12785;BME280;6456;42.680;23.260;2024-01-30T09:35:50;96573.16;;;1.52;64.94
12785;BME280;6456;42.680;23.260;2024-01-30T09:38:17;96611.66;;;1.82;66.34
12785;BME280;6456;42.680;23.260;2024-01-30T09:40:45;96611.81;;;1.68;65.95
12785;BME280;6456;42.680;23.260;2024-01-30T09:43:21;96638.50;;;1.70;65.66
12785;BME280;6456;42.680;23.260;2024-01-30T09:45:50;96627.81;;;1.62;64.82
12785;BME280;6456;42.680;23.260;2024-01-30T09:48:19;96586.94;;;1.29;65.01
12785;BME280;6456;42.680;23.260;2024-01-30T09:50:46;96604.38;;;1.51;65.17
12785;BME280;6456;42.680;23.260;2024-01-30T09:53:14;96618.75;;;1.44;66.37
12785;BME280;6456;42.680;23.260;2024-01-30T09:55:43;96575.94;;;1.25;65.76
12785;BME280;6456;42.680;23.260;2024-01-30T09:58:11;96630.41;;;1.62;66.19
12785;BME280;6456;42.680;23.260;2024-01-30T10:00:38;96598.94;;;1.43;65.58
12785;BME280;6456;42.680;23.260;2024-01-30T10:03:05;96556.69;;;1.17;64.97
12785;BME280;6456;42.680;23.260;2024-01-30T10:05:35;96595.72;;;1.39;64.81
12785;BME280;6456;42.680;23.260;2024-01-30T10:08:06;96594.72;;;1.29;65.30
12785;BME280;6456;42.680;23.260;2024-01-30T10:10:33;96614.50;;;1.43;65.44
12785;BME280;6456;42.680;23.260;2024-01-30T10:13:01;96632.63;;;1.55;64.95
12785;BME280;6456;42.680;23.260;2024-01-30T10:15:28;96574.75;;;1.42;65.62
12785;BME280;6456;42.680;23.260;2024-01-30T10:17:57;96532.50;;;1.16;68.68
12785;BME280;6456;42.680;23.260;2024-01-30T10:20:46;96608.72;;;1.86;66.72
12785;BME280;6456;42.680;23.260;2024-01-30T10:23:13;96540.47;;;1.50;64.76
12785;BME280;6456;42.680;23.260;2024-01-30T10:25:40;96622.56;;;1.98;63.78
12785;BME280;6456;42.680;23.260;2024-01-30T10:28:07;96594.41;;;1.81;64.46
12785;BME280;6456;42.680;23.260;2024-01-30T10:30:34;96616.59;;;2.09;63.78
12785;BME280;6456;42.680;23.260;2024-01-30T10:33:02;96604.94;;;2.14;62.47
12785;BME280;6456;42.680;23.260;2024-01-30T10:35:31;96540.50;;;1.61;62.75
12785;BME280;6456;42.680;23.260;2024-01-30T10:38:00;96541.69;;;1.57;62.30
12785;BME280;6456;42.680;23.260;2024-01-30T10:40:33;96554.88;;;1.54;62.77
12785;BME280;6456;42.680;23.260;2024-01-30T10:43:01;96572.31;;;1.75;62.59
12785;BME280;6456;42.680;23.260;2024-01-30T10:45:29;96546.94;;;1.68;62.34
12785;BME280;6456;42.680;23.260;2024-01-30T10:47:58;96566.50;;;1.95;62.46
12785;BME280;6456;42.680;23.260;2024-01-30T10:50:26;96589.91;;;2.07;61.71
12785;BME280;6456;42.680;23.260;2024-01-30T10:52:55;96554.84;;;2.01;61.74
12785;BME280;6456;42.680;23.260;2024-01-30T10:55:27;96514.56;;;1.84;61.73
12785;BME280;6456;42.680;23.260;2024-01-30T10:57:56;96540.50;;;1.84;62.00
12785;BME280;6456;42.680;23.260;2024-01-30T11:00:24;96556.50;;;2.02;61.70
12785;BME280;6456;42.680;23.260;2024-01-30T11:02:53;96542.00;;;2.11;62.15
12785;BME280;6456;42.680;23.260;2024-01-30T11:05:24;96542.03;;;2.22;61.32
12785;BME280;6456;42.680;23.260;2024-01-30T11:07:52;96547.44;;;2.08;61.01
12785;BME280;6456;42.680;23.260;2024-01-30T11:10:19;96561.13;;;2.21;61.80
12785;BME280;6456;42.680;23.260;2024-01-30T11:12:48;96548.63;;;2.15;62.21
12785;BME280;6456;42.680;23.260;2024-01-30T11:15:17;96570.38;;;2.25;63.51
12785;BME280;6456;42.680;23.260;2024-01-30T11:17:47;96556.81;;;2.43;64.88
12785;BME280;6456;42.680;23.260;2024-01-30T11:20:19;96498.06;;;1.97;63.68
12785;BME280;6456;42.680;23.260;2024-01-30T11:22:47;96479.19;;;1.94;61.75
12785;BME280;6456;42.680;23.260;2024-01-30T11:25:16;96537.22;;;2.39;60.91
12785;BME280;6456;42.680;23.260;2024-01-30T11:27:44;96560.72;;;2.49;60.75
12785;BME280;6456;42.680;23.260;2024-01-30T11:30:22;96537.56;;;2.35;60.93
12785;BME280;6456;42.680;23.260;2024-01-30T11:33:00;96487.09;;;2.04;61.41
12785;BME280;6456;42.680;23.260;2024-01-30T11:35:29;96547.03;;;2.47;61.48
12785;BME280;6456;42.680;23.260;2024-01-30T11:38:00;96565.81;;;2.62;61.25
12785;BME280;6456;42.680;23.260;2024-01-30T11:40:28;96501.44;;;2.32;61.32
12785;BME280;6456;42.680;23.260;2024-01-30T11:42:56;96521.03;;;2.36;61.07
12785;BME280;6456;42.680;23.260;2024-01-30T11:45:24;96532.97;;;2.60;61.03
12785;BME280;6456;42.680;23.260;2024-01-30T11:47:52;96571.53;;;2.78;61.22
12785;BME280;6456;42.680;23.260;2024-01-30T11:50:19;96583.94;;;2.85;60.39
12785;BME280;6456;42.680;23.260;2024-01-30T11:52:46;96541.47;;;2.51;60.38
12785;BME280;6456;42.680;23.260;2024-01-30T11:55:14;96497.25;;;2.07;61.31
12785;BME280;6456;42.680;23.260;2024-01-30T11:57:42;96471.47;;;1.93;61.60
12785;BME280;6456;42.680;23.260;2024-01-30T12:00:14;96507.78;;;2.17;62.22
12785;BME280;6456;42.680;23.260;2024-01-30T12:02:44;96547.75;;;2.38;62.82
12785;BME280;6456;42.680;23.260;2024-01-30T12:05:13;96472.88;;;1.86;62.89
12785;BME280;6456;42.680;23.260;2024-01-30T12:07:44;96468.88;;;1.82;63.04
12785;BME280;6456;42.680;23.260;2024-01-30T12:10:12;96517.34;;;2.16;63.44
12785;BME280;6456;42.680;23.260;2024-01-30T12:12:40;96528.69;;;2.26;63.58
12785;BME280;6456;42.680;23.260;2024-01-30T12:15:08;96508.88;;;2.25;63.16
12785;BME280;6456;42.680;23.260;2024-01-30T12:17:35;96482.28;;;2.22;63.12
12785;BME280;6456;42.680;23.260;2024-01-30T12:20:05;96468.34;;;2.12;63.03
12785;BME280;6456;42.680;23.260;2024-01-30T12:22:35;96502.13;;;2.34;63.93
12785;BME280;6456;42.680;23.260;2024-01-30T12:25:07;96486.19;;;2.27;63.68
12785;BME280;6456;42.680;23.260;2024-01-30T12:27:34;96484.41;;;2.17;62.89
12785;BME280;6456;42.680;23.260;2024-01-30T12:30:05;96512.16;;;2.38;62.79
12785;BME280;6456;42.680;23.260;2024-01-30T12:32:34;96491.13;;;2.19;64.11
12785;BME280;6456;42.680;23.260;2024-01-30T12:35:07;96495.63;;;2.28;63.38
12785;BME280;6456;42.680;23.260;2024-01-30T12:37:35;96433.97;;;1.97;63.41
12785;BME280;6456;42.680;23.260;2024-01-30T12:40:03;96491.38;;;2.38;62.80
12785;BME280;6456;42.680;23.260;2024-01-30T12:42:31;96487.84;;;2.39;63.33
12785;BME280;6456;42.680;23.260;2024-01-30T12:44:59;96498.84;;;2.43;62.90
12785;BME280;6456;42.680;23.260;2024-01-30T12:47:26;96473.09;;;2.29;62.38
12785;BME280;6456;42.680;23.260;2024-01-30T12:50:05;96446.16;;;2.30;61.88
12785;BME280;6456;42.680;23.260;2024-01-30T12:52:33;96440.63;;;2.34;61.73
12785;BME280;6456;42.680;23.260;2024-01-30T12:55:05;96432.56;;;2.26;61.53
12785;BME280;6456;42.680;23.260;2024-01-30T12:57:34;96467.06;;;2.62;61.09
12785;BME280;6456;42.680;23.260;2024-01-30T13:00:09;96445.81;;;2.68;60.95
12785;BME280;6456;42.680;23.260;2024-01-30T13:02:40;96436.66;;;2.73;60.20
12785;BME280;6456;42.680;23.260;2024-01-30T13:05:16;96443.91;;;2.70;59.88
12785;BME280;6456;42.680;23.260;2024-01-30T13:07:44;96408.72;;;2.43;60.76
12785;BME280;6456;42.680;23.260;2024-01-30T13:10:11;96428.78;;;2.64;61.08
12785;BME280;6456;42.680;23.260;2024-01-30T13:12:39;96484.84;;;3.10;59.69
12785;BME280;6456;42.680;23.260;2024-01-30T13:15:09;96433.94;;;2.86;59.61